Station Historical Data
Daily Summary for August 30, 2017 Units:  English    Metric   Both
« Previous Day
Next Day »
Daily Weekly Monthly Yearly Custom
  High: Low: Average:
Temperature: 75.0 °F 55.3 °F 66.5 °F
Dew Point: 64.2 °F 52.2 °F 58.1 °F
Humidity: 91% 56% 75%
Wind Speed: 12.0mph 0.0mph 2.4mph
Wind Gust: 13.0mph - -
Wind- - WSW
Pressure: 30.02 in 29.93 in -
Precipitation: 0.00 in    
Historical Graphs
 
 
Tabular Data for August 30, 2017
Time Temperature Dew Point Pressure Wind Wind Speed Wind Gust Humidity Rainfall Rate (Hourly)
00:04 61.0 °F 55.5 °F 30.01 in Calm     82% 0.00 in
00:09 60.8 °F 55.3 °F 30.01 in Calm     82% 0.00 in
00:14 60.7 °F 55.2 °F 30.01 in Calm     82% 0.00 in
00:19 60.3 °F 54.8 °F 30.01 in Calm     82% 0.00 in
00:24 59.8 °F 54.3 °F 30.01 in Calm     82% 0.00 in
00:29 59.4 °F 54.2 °F 30.01 in Calm     83% 0.00 in
00:34 59.2 °F 54.4 °F 30.00 in Calm     84% 0.00 in
00:39 59.2 °F 54.7 °F 30.01 in Calm     85% 0.00 in
00:44 59.0 °F 54.5 °F 30.01 in Calm     85% 0.00 in
00:49 58.8 °F 54.3 °F 30.01 in Calm     85% 0.00 in
00:54 58.6 °F 54.1 °F 30.00 in Calm     85% 0.00 in
00:59 58.5 °F 54.0 °F 30.01 in Calm     85% 0.00 in
01:04 58.4 °F 53.9 °F 30.00 in Calm     85% 0.00 in
01:09 58.2 °F 53.7 °F 30.00 in Calm     85% 0.00 in
01:14 58.2 °F 54.0 °F 30.00 in Calm     86% 0.00 in
01:19 58.2 °F 54.0 °F 30.00 in Calm     86% 0.00 in
01:24 58.2 °F 54.0 °F 30.00 in Calm     86% 0.00 in
01:29 58.3 °F 54.4 °F 30.00 in Calm     87% 0.00 in
01:34 58.3 °F 54.1 °F 30.00 in Calm     86% 0.00 in
01:39 58.4 °F 54.2 °F 30.00 in Calm     86% 0.00 in
01:44 58.5 °F 54.3 °F 30.00 in Calm     86% 0.00 in
01:49 58.6 °F 54.1 °F 30.00 in Calm     85% 0.00 in
01:54 58.7 °F 54.2 °F 30.00 in Calm   2.0 mph 85% 0.00 in
01:59 58.7 °F 54.2 °F 30.00 in Calm     85% 0.00 in
02:05 58.9 °F 54.4 °F 30.00 in Calm   2.0 mph 85% 0.00 in
02:14 59.3 °F 54.5 °F 30.00 in Calm   1.0 mph 84% 0.00 in
02:19 59.4 °F 54.2 °F 30.00 in Calm   4.0 mph 83% 0.00 in
02:24 59.5 °F 54.3 °F 30.00 in Calm   4.0 mph 83% 0.00 in
02:29 59.5 °F 54.3 °F 30.00 in Calm   1.0 mph 83% 0.00 in
02:34 59.2 °F 53.7 °F 30.00 in Calm   1.0 mph 82% 0.00 in
02:39 58.8 °F 53.6 °F 30.00 in Calm     83% 0.00 in
02:44 58.6 °F 53.5 °F 30.00 in Calm     83% 0.00 in
02:49 58.3 °F 53.5 °F 30.00 in Calm     84% 0.00 in
02:54 58.2 °F 53.4 °F 30.00 in Calm     84% 0.00 in
02:59 58.0 °F 53.5 °F 30.00 in Calm     85% 0.00 in
03:04 57.8 °F 53.3 °F 30.00 in Calm     85% 0.00 in
03:09 57.6 °F 53.4 °F 30.00 in Calm     86% 0.00 in
03:14 57.5 °F 53.3 °F 30.00 in Calm     86% 0.00 in
03:19 57.4 °F 53.2 °F 29.99 in Calm     86% 0.00 in
03:24 57.4 °F 53.2 °F 29.99 in Calm     86% 0.00 in
03:29 57.4 °F 53.6 °F 29.99 in Calm   2.0 mph 87% 0.00 in
03:34 57.7 °F 53.9 °F 29.99 in Calm   2.0 mph 87% 0.00 in
03:39 57.9 °F 53.7 °F 30.00 in Calm   2.0 mph 86% 0.00 in
03:44 58.0 °F 53.8 °F 29.99 in Calm     86% 0.00 in
03:49 58.1 °F 53.9 °F 29.99 in Calm     86% 0.00 in
03:54 58.2 °F 54.0 °F 29.99 in Calm     86% 0.00 in
03:59 58.2 °F 53.7 °F 29.99 in Calm     85% 0.00 in
04:04 58.3 °F 54.1 °F 29.99 in Calm   2.0 mph 86% 0.00 in
04:14 58.1 °F 53.6 °F 29.99 in Calm     85% 0.00 in
04:19 57.8 °F 53.6 °F 29.99 in Calm     86% 0.00 in
04:24 57.6 °F 53.4 °F 29.99 in Calm     86% 0.00 in
04:29 57.5 °F 53.3 °F 29.99 in Calm     86% 0.00 in
04:34 57.3 °F 53.1 °F 29.99 in Calm     86% 0.00 in
04:39 57.4 °F 53.6 °F 29.99 in Calm     87% 0.00 in
04:44 57.3 °F 53.5 °F 29.99 in Calm     87% 0.00 in
04:49 57.3 °F 53.5 °F 29.99 in Calm     87% 0.00 in
04:54 57.2 °F 53.4 °F 29.99 in Calm     87% 0.00 in
04:59 57.1 °F 53.3 °F 29.99 in Calm     87% 0.00 in
05:04 56.9 °F 53.1 °F 29.99 in Calm     87% 0.00 in
05:09 56.8 °F 53.0 °F 29.99 in Calm     87% 0.00 in
05:19 56.4 °F 52.9 °F 29.98 in Calm     88% 0.00 in
05:24 56.3 °F 52.8 °F 29.98 in Calm     88% 0.00 in
05:29 56.2 °F 52.7 °F 29.98 in Calm     88% 0.00 in
05:34 56.0 °F 52.5 °F 29.98 in Calm     88% 0.00 in
05:39 55.9 °F 52.7 °F 29.98 in Calm     89% 0.00 in
05:49 55.8 °F 52.6 °F 29.98 in Calm     89% 0.00 in
05:54 55.7 °F 52.5 °F 29.98 in Calm     89% 0.00 in
05:59 55.7 °F 52.5 °F 29.98 in Calm     89% 0.00 in
06:04 55.6 °F 52.4 °F 29.98 in Calm     89% 0.00 in
06:09 55.4 °F 52.2 °F 29.98 in Calm     89% 0.00 in
06:14 55.3 °F 52.4 °F 29.98 in Calm     90% 0.00 in
06:19 55.3 °F 52.4 °F 29.99 in Calm     90% 0.00 in
06:24 55.4 °F 52.5 °F 29.99 in Calm     90% 0.00 in
06:29 55.3 °F 52.4 °F 29.99 in Calm     90% 0.00 in
06:34 55.3 °F 52.4 °F 29.99 in Calm     90% 0.00 in
06:39 55.3 °F 52.4 °F 29.99 in Calm     90% 0.00 in
06:44 55.4 °F 52.5 °F 29.99 in Calm     90% 0.00 in
06:49 55.4 °F 52.5 °F 29.99 in Calm     90% 0.00 in
06:54 55.6 °F 53.0 °F 29.99 in Calm     91% 0.00 in
06:59 55.7 °F 53.1 °F 30.00 in Calm     91% 0.00 in
07:04 55.8 °F 52.9 °F 30.00 in Calm     90% 0.00 in
07:09 55.9 °F 53.0 °F 30.00 in Calm     90% 0.00 in
07:14 56.3 °F 53.7 °F 30.00 in Calm     91% 0.00 in
07:19 56.7 °F 54.1 °F 30.00 in Calm   1.0 mph 91% 0.00 in
07:24 57.1 °F 54.2 °F 30.01 in Calm   1.0 mph 90% 0.00 in
07:29 57.5 °F 54.6 °F 30.01 in Calm     90% 0.00 in
07:34 57.8 °F 54.9 °F 30.01 in Calm     90% 0.00 in
07:39 58.2 °F 55.0 °F 30.01 in Calm     89% 0.00 in
07:44 58.6 °F 55.4 °F 30.01 in Calm     89% 0.00 in
07:49 59.2 °F 55.6 °F 30.01 in Calm     88% 0.00 in
07:54 59.6 °F 55.7 °F 30.01 in Calm   2.0 mph 87% 0.00 in
07:59 60.1 °F 56.2 °F 30.01 in Calm   2.0 mph 87% 0.00 in
08:09 61.2 °F 56.7 °F 30.01 in Calm   3.0 mph 85% 0.00 in
08:14 61.8 °F 56.9 °F 30.01 in South 3.0 mph 4.0 mph 84% 0.00 in
08:19 62.2 °F 57.3 °F 30.01 in SW 2.0 mph 5.0 mph 84% 0.00 in
08:24 62.8 °F 57.6 °F 30.02 in SW 2.0 mph 5.0 mph 83% 0.00 in
08:29 63.2 °F 57.6 °F 30.02 in SW 1.0 mph 5.0 mph 82% 0.00 in
08:34 63.6 °F 58.0 °F 30.01 in SW 2.0 mph 2.0 mph 82% 0.00 in
08:39 64.1 °F 58.1 °F 30.02 in SW 2.0 mph 4.0 mph 81% 0.00 in
08:44 64.7 °F 58.7 °F 30.01 in Calm   4.0 mph 81% 0.00 in
08:49 65.1 °F 58.8 °F 30.02 in SW 1.0 mph 4.0 mph 80% 0.00 in
08:54 65.4 °F 59.1 °F 30.02 in SW 2.0 mph 5.0 mph 80% 0.00 in
08:59 66.1 °F 59.7 °F 30.01 in SW 1.0 mph 5.0 mph 80% 0.00 in
09:04 67.0 °F 60.6 °F 30.02 in WSW 3.0 mph 4.0 mph 80% 0.00 in
09:09 67.2 °F 60.5 °F 30.02 in SW 3.0 mph 6.0 mph 79% 0.00 in
09:14 67.1 °F 60.7 °F 30.02 in West 3.0 mph 6.0 mph 80% 0.00 in
09:19 66.6 °F 59.9 °F 30.02 in West 5.0 mph 8.0 mph 79% 0.00 in
09:24 66.4 °F 60.0 °F 30.02 in West 3.0 mph 8.0 mph 80% 0.00 in
09:29 67.7 °F 60.6 °F 30.02 in West 2.0 mph 5.0 mph 78% 0.00 in
09:34 68.9 °F 61.8 °F 30.01 in WNW 1.0 mph 4.0 mph 78% 0.00 in
09:39 69.2 °F 60.6 °F 30.01 in West 2.0 mph 5.0 mph 74% 0.00 in
09:44 68.6 °F 59.6 °F 30.01 in SW 3.0 mph 5.0 mph 73% 0.00 in
09:49 68.8 °F 60.2 °F 30.01 in WSW 2.0 mph 4.0 mph 74% 0.00 in
09:54 69.1 °F 59.7 °F 30.01 in WSW 3.0 mph 5.0 mph 72% 0.00 in
09:59 70.0 °F 59.4 °F 30.01 in Calm   4.0 mph 69% 0.00 in
10:09 70.4 °F 59.7 °F 30.01 in West 2.0 mph 4.0 mph 69% 0.00 in
10:14 70.8 °F 59.3 °F 30.00 in WSW 3.0 mph 6.0 mph 67% 0.00 in
10:19 70.7 °F 58.4 °F 30.00 in West 1.0 mph 7.0 mph 65% 0.00 in
10:34 70.9 °F 57.7 °F 30.00 in WSW 5.0 mph 9.0 mph 63% 0.00 in
10:39 71.7 °F 58.9 °F 30.00 in West 5.0 mph 6.0 mph 64% 0.00 in
10:44 72.1 °F 57.9 °F 30.00 in West 3.0 mph 7.0 mph 61% 0.00 in
10:49 72.1 °F 57.4 °F 30.00 in West 4.0 mph 9.0 mph 60% 0.00 in
10:54 71.9 °F 56.8 °F 30.00 in NNW 1.0 mph 7.0 mph 59% 0.00 in
10:59 72.0 °F 58.7 °F 30.00 in WNW 2.0 mph 6.0 mph 63% 0.00 in
11:04 71.9 °F 58.2 °F 30.00 in West 12.0 mph 12.0 mph 62% 0.00 in
11:09 70.6 °F 56.9 °F 30.00 in WNW 2.0 mph 12.0 mph 62% 0.00 in
11:14 71.2 °F 58.0 °F 30.00 in WNW 5.0 mph 7.0 mph 63% 0.00 in
11:19 70.7 °F 57.9 °F 30.00 in WSW 1.0 mph 7.0 mph 64% 0.00 in
11:24 71.6 °F 57.9 °F 30.00 in West 2.0 mph 7.0 mph 62% 0.00 in
11:29 72.1 °F 58.4 °F 30.00 in West 3.0 mph 7.0 mph 62% 0.00 in
11:34 71.9 °F 58.6 °F 30.00 in West 3.0 mph 7.0 mph 63% 0.00 in
11:39 72.1 °F 57.0 °F 30.00 in WNW 3.0 mph 7.0 mph 59% 0.00 in
11:44 72.4 °F 57.3 °F 30.00 in WNW 3.0 mph 7.0 mph 59% 0.00 in
11:49 71.6 °F 57.0 °F 30.00 in West 3.0 mph 8.0 mph 60% 0.00 in
11:54 72.1 °F 57.4 °F 30.00 in WNW 2.0 mph 5.0 mph 60% 0.00 in
11:59 72.7 °F 58.0 °F 30.00 in West 2.0 mph 7.0 mph 60% 0.00 in
12:04 73.2 °F 58.0 °F 30.00 in West 3.0 mph 7.0 mph 59% 0.00 in
12:09 73.7 °F 58.0 °F 30.00 in WSW 5.0 mph 9.0 mph 58% 0.00 in
12:14 74.0 °F 58.8 °F 30.00 in WNW 5.0 mph 8.0 mph 59% 0.00 in
12:19 74.5 °F 57.8 °F 30.00 in West 4.0 mph 8.0 mph 56% 0.00 in
12:24 73.8 °F 58.6 °F 30.00 in WNW 7.0 mph 7.0 mph 59% 0.00 in
12:29 72.6 °F 57.9 °F 30.00 in West 3.0 mph 8.0 mph 60% 0.00 in
12:34 72.6 °F 57.9 °F 30.00 in WNW 3.0 mph 8.0 mph 60% 0.00 in
12:39 72.4 °F 57.3 °F 30.00 in WNW 3.0 mph 8.0 mph 59% 0.00 in
12:44 72.0 °F 57.8 °F 30.00 in WNW 4.0 mph 8.0 mph 61% 0.00 in
12:49 71.9 °F 56.8 °F 29.99 in West 3.0 mph 5.0 mph 59% 0.00 in
12:54 71.7 °F 58.9 °F 29.99 in WSW 5.0 mph 9.0 mph 64% 0.00 in
12:59 71.9 °F 57.3 °F 29.99 in WSW 2.0 mph 5.0 mph 60% 0.00 in
13:04 72.0 °F 56.9 °F 29.99 in WNW 3.0 mph 5.0 mph 59% 0.00 in
13:09 72.2 °F 58.5 °F 29.99 in WNW 3.0 mph 7.0 mph 62% 0.00 in
13:14 71.7 °F 60.6 °F 29.99 in West 3.0 mph 6.0 mph 68% 0.00 in
13:19 72.2 °F 60.6 °F 29.99 in WSW 2.0 mph 6.0 mph 67% 0.00 in
13:24 72.4 °F 60.4 °F 29.98 in West 4.0 mph 10.0 mph 66% 0.00 in
13:29 72.4 °F 61.2 °F 29.98 in WSW 6.0 mph 10.0 mph 68% 0.00 in
13:34 72.2 °F 61.0 °F 29.98 in WSW 5.0 mph 10.0 mph 68% 0.00 in
13:39 71.9 °F 60.3 °F 29.98 in WSW 4.0 mph 12.0 mph 67% 0.00 in
13:44 71.5 °F 61.2 °F 29.98 in SW 5.0 mph 12.0 mph 70% 0.00 in
13:49 71.4 °F 61.5 °F 29.98 in WSW 4.0 mph 10.0 mph 71% 0.00 in
13:54 71.1 °F 60.4 °F 29.98 in WSW 2.0 mph 8.0 mph 69% 0.00 in
13:59 71.2 °F 60.9 °F 29.98 in SW 5.0 mph 10.0 mph 70% 0.00 in
14:04 71.5 °F 61.6 °F 29.98 in WNW 5.0 mph 10.0 mph 71% 0.00 in
14:09 72.3 °F 62.4 °F 29.98 in SW 4.0 mph 11.0 mph 71% 0.00 in
14:14 73.2 °F 62.4 °F 29.98 in SW 4.0 mph 9.0 mph 69% 0.00 in
14:19 73.7 °F 62.1 °F 29.98 in SW 7.0 mph 11.0 mph 67% 0.00 in
14:24 73.9 °F 62.2 °F 29.97 in SSE 6.0 mph 12.0 mph 67% 0.00 in
14:29 74.3 °F 63.1 °F 29.97 in SW 5.0 mph 11.0 mph 68% 0.00 in
14:34 74.2 °F 62.5 °F 29.98 in SW 3.0 mph 11.0 mph 67% 0.00 in
14:39 75.0 °F 62.4 °F 29.98 in SW 5.0 mph 11.0 mph 65% 0.00 in
14:44 74.3 °F 62.2 °F 29.97 in SW 5.0 mph 13.0 mph 66% 0.00 in
14:49 73.9 °F 61.8 °F 29.98 in SW 6.0 mph 13.0 mph 66% 0.00 in
14:54 72.9 °F 62.1 °F 29.97 in SW 5.0 mph 11.0 mph 69% 0.00 in
14:59 72.7 °F 61.9 °F 29.97 in WSW 4.0 mph 10.0 mph 69% 0.00 in
15:04 72.1 °F 61.0 °F 29.97 in SW 5.0 mph 11.0 mph 68% 0.00 in
15:09 71.7 °F 61.4 °F 29.97 in SW 4.0 mph 11.0 mph 70% 0.00 in
15:14 72.7 °F 62.8 °F 29.97 in SSW 4.0 mph 8.0 mph 71% 0.00 in
15:19 73.9 °F 62.7 °F 29.97 in WSW 4.0 mph 9.0 mph 68% 0.00 in
15:24 74.6 °F 62.9 °F 29.97 in WSW 7.0 mph 9.0 mph 67% 0.00 in
15:29 74.5 °F 62.8 °F 29.97 in West 3.0 mph 10.0 mph 67% 0.00 in
15:34 73.5 °F 61.9 °F 29.96 in WSW 3.0 mph 9.0 mph 67% 0.00 in
15:39 72.7 °F 61.1 °F 29.96 in WSW 5.0 mph 11.0 mph 67% 0.00 in
15:44 72.2 °F 61.0 °F 29.97 in WSW 5.0 mph 11.0 mph 68% 0.00 in
15:49 72.4 °F 61.7 °F 29.96 in WSW 4.0 mph 8.0 mph 69% 0.00 in
15:54 73.2 °F 60.7 °F 29.96 in WSW 5.0 mph 10.0 mph 65% 0.00 in
15:59 73.4 °F 61.8 °F 29.96 in SW 5.0 mph 10.0 mph 67% 0.00 in
16:04 74.4 °F 61.4 °F 29.96 in SSW 4.0 mph 8.0 mph 64% 0.00 in
16:09 74.8 °F 61.8 °F 29.96 in West 3.0 mph 9.0 mph 64% 0.00 in
16:14 74.5 °F 62.4 °F 29.96 in SW 5.0 mph 9.0 mph 66% 0.00 in
16:19 74.3 °F 61.8 °F 29.96 in SW 5.0 mph 10.0 mph 65% 0.00 in
16:24 74.7 °F 62.1 °F 29.96 in West 3.0 mph 11.0 mph 65% 0.00 in
16:29 74.8 °F 61.8 °F 29.95 in SW 5.0 mph 8.0 mph 64% 0.00 in
16:34 74.8 °F 61.4 °F 29.96 in WSW 5.0 mph 10.0 mph 63% 0.00 in
16:39 74.3 °F 61.3 °F 29.95 in SW 4.0 mph 11.0 mph 64% 0.00 in
16:44 74.3 °F 61.8 °F 29.95 in WSW 5.0 mph 11.0 mph 65% 0.00 in
16:49 74.4 °F 61.4 °F 29.95 in SW 6.0 mph 9.0 mph 64% 0.00 in
16:54 74.5 °F 62.0 °F 29.95 in West 8.0 mph 9.0 mph 65% 0.00 in
16:59 74.4 °F 61.0 °F 29.95 in South 3.0 mph 11.0 mph 63% 0.00 in
17:04 74.2 °F 60.3 °F 29.95 in SW 5.0 mph 9.0 mph 62% 0.00 in
17:09 73.9 °F 61.0 °F 29.95 in West 4.0 mph 8.0 mph 64% 0.00 in
17:14 73.9 °F 61.4 °F 29.95 in WSW 4.0 mph 8.0 mph 65% 0.00 in
17:19 73.8 °F 61.7 °F 29.95 in WSW 5.0 mph 9.0 mph 66% 0.00 in
17:24 74.2 °F 61.7 °F 29.95 in SW 6.0 mph 9.0 mph 65% 0.00 in
17:29 74.3 °F 61.3 °F 29.95 in WSW 5.0 mph 9.0 mph 64% 0.00 in
17:34 74.0 °F 61.5 °F 29.95 in WSW 5.0 mph 9.0 mph 65% 0.00 in
17:39 73.4 °F 60.9 °F 29.95 in WSW 4.0 mph 9.0 mph 65% 0.00 in
17:44 73.0 °F 61.0 °F 29.95 in SW 5.0 mph 9.0 mph 66% 0.00 in
17:49 72.5 °F 60.5 °F 29.95 in SW 4.0 mph 9.0 mph 66% 0.00 in
17:54 72.3 °F 60.3 °F 29.95 in WSW 4.0 mph 9.0 mph 66% 0.00 in
17:59 72.4 °F 60.0 °F 29.95 in SW 6.0 mph 9.0 mph 65% 0.00 in
18:04 72.2 °F 60.2 °F 29.94 in WSW 3.0 mph 10.0 mph 66% 0.00 in
18:09 72.4 °F 59.5 °F 29.95 in WSW 5.0 mph 11.0 mph 64% 0.00 in
18:14 72.4 °F 58.6 °F 29.95 in SW 5.0 mph 12.0 mph 62% 0.00 in
18:19 72.3 °F 59.0 °F 29.95 in WSW 5.0 mph 12.0 mph 63% 0.00 in
18:24 72.3 °F 59.0 °F 29.94 in WSW 4.0 mph 10.0 mph 63% 0.00 in
18:29 72.2 °F 57.5 °F 29.94 in WSW 5.0 mph 10.0 mph 60% 0.00 in
18:34 72.0 °F 58.3 °F 29.94 in WSW 5.0 mph 10.0 mph 62% 0.00 in
18:39 71.8 °F 59.0 °F 29.94 in WSW 4.0 mph 12.0 mph 64% 0.00 in
18:44 71.7 °F 58.9 °F 29.94 in WSW 5.0 mph 8.0 mph 64% 0.00 in
18:49 71.6 °F 58.3 °F 29.94 in SW 3.0 mph 6.0 mph 63% 0.00 in
18:54 71.6 °F 57.9 °F 29.94 in SW 6.0 mph 8.0 mph 62% 0.00 in
18:59 71.4 °F 57.7 °F 29.94 in WSW 7.0 mph 11.0 mph 62% 0.00 in
19:04 71.2 °F 58.0 °F 29.93 in SW 4.0 mph 9.0 mph 63% 0.00 in
19:09 71.1 °F 58.3 °F 29.94 in West 5.0 mph 7.0 mph 64% 0.00 in
19:14 71.1 °F 58.3 °F 29.93 in West 6.0 mph 8.0 mph 64% 0.00 in
19:19 70.9 °F 57.7 °F 29.94 in WSW 4.0 mph 9.0 mph 63% 0.00 in
19:24 70.8 °F 57.6 °F 29.94 in WSW 4.0 mph 9.0 mph 63% 0.00 in
19:29 70.7 °F 57.9 °F 29.94 in WSW 4.0 mph 8.0 mph 64% 0.00 in
19:34 70.6 °F 57.8 °F 29.94 in WSW 5.0 mph 7.0 mph 64% 0.00 in
19:39 70.4 °F 58.1 °F 29.94 in WSW 4.0 mph 7.0 mph 65% 0.00 in
19:44 70.2 °F 58.3 °F 29.94 in WSW 3.0 mph 3.0 mph 66% 0.00 in
19:49 69.9 °F 58.4 °F 29.94 in Calm   4.0 mph 67% 0.00 in
19:54 69.6 °F 58.2 °F 29.94 in SW 1.0 mph 5.0 mph 67% 0.00 in
19:59 69.6 °F 58.6 °F 29.94 in SW 2.0 mph 7.0 mph 68% 0.00 in
20:04 69.5 °F 58.9 °F 29.93 in SW 2.0 mph 7.0 mph 69% 0.00 in
20:09 69.3 °F 58.7 °F 29.94 in WSW 2.0 mph 5.0 mph 69% 0.00 in
20:14 69.1 °F 58.5 °F 29.93 in Calm   4.0 mph 69% 0.00 in
20:19 69.0 °F 58.8 °F 29.93 in WSW 3.0 mph 4.0 mph 70% 0.00 in
20:24 68.7 °F 58.9 °F 29.93 in WSW 1.0 mph 4.0 mph 71% 0.00 in
20:29 68.5 °F 58.7 °F 29.94 in WSW 1.0 mph 3.0 mph 71% 0.00 in
20:34 68.5 °F 59.1 °F 29.94 in WSW 1.0 mph 5.0 mph 72% 0.00 in
20:39 68.5 °F 59.1 °F 29.94 in SW 1.0 mph 5.0 mph 72% 0.00 in
20:44 68.6 °F 59.6 °F 29.94 in SW 1.0 mph 5.0 mph 73% 0.00 in
20:49 68.7 °F 60.1 °F 29.94 in West 5.0 mph 7.0 mph 74% 0.00 in
20:54 68.8 °F 60.2 °F 29.94 in WSW 1.0 mph 6.0 mph 74% 0.00 in
20:59 68.7 °F 60.5 °F 29.94 in WSW 2.0 mph 6.0 mph 75% 0.00 in
21:04 68.6 °F 60.7 °F 29.94 in WSW 2.0 mph 6.0 mph 76% 0.00 in
21:14 68.7 °F 61.2 °F 29.94 in SW 2.0 mph 5.0 mph 77% 0.00 in
21:19 68.7 °F 61.2 °F 29.94 in WSW 1.0 mph 5.0 mph 77% 0.00 in
21:24 68.7 °F 61.6 °F 29.94 in SW 3.0 mph 5.0 mph 78% 0.00 in
21:29 68.6 °F 61.5 °F 29.94 in WSW 2.0 mph 5.0 mph 78% 0.00 in
21:34 68.6 °F 61.5 °F 29.94 in SW 2.0 mph 6.0 mph 78% 0.00 in
21:39 68.6 °F 61.5 °F 29.94 in WSW 3.0 mph 6.0 mph 78% 0.00 in
21:44 68.7 °F 61.6 °F 29.94 in WSW 2.0 mph 5.0 mph 78% 0.00 in
21:49 68.7 °F 61.9 °F 29.94 in WSW 3.0 mph 5.0 mph 79% 0.00 in
21:54 68.7 °F 61.9 °F 29.94 in SW 2.0 mph 6.0 mph 79% 0.00 in
21:59 68.8 °F 62.0 °F 29.94 in WSW 2.0 mph 6.0 mph 79% 0.00 in
22:04 68.8 °F 62.4 °F 29.94 in WSW 3.0 mph 9.0 mph 80% 0.00 in
22:09 68.9 °F 62.5 °F 29.94 in WSW 4.0 mph 9.0 mph 80% 0.00 in
22:19 69.0 °F 62.6 °F 29.94 in WSW 4.0 mph 9.0 mph 80% 0.00 in
22:24 69.0 °F 62.9 °F 29.94 in WSW 4.0 mph 7.0 mph 81% 0.00 in
22:29 69.2 °F 63.1 °F 29.94 in SW 4.0 mph 6.0 mph 81% 0.00 in
22:34 69.3 °F 63.2 °F 29.94 in WSW 6.0 mph 8.0 mph 81% 0.00 in
22:39 69.5 °F 63.8 °F 29.94 in West 5.0 mph 10.0 mph 82% 0.00 in
22:44 69.6 °F 63.9 °F 29.94 in SW 6.0 mph 11.0 mph 82% 0.00 in
22:49 69.8 °F 64.1 °F 29.94 in West 7.0 mph 9.0 mph 82% 0.00 in
22:54 69.9 °F 64.2 °F 29.94 in WSW 5.0 mph 10.0 mph 82% 0.00 in
22:59 69.8 °F 64.1 °F 29.94 in WSW 3.0 mph 7.0 mph 82% 0.00 in
23:04 69.8 °F 64.1 °F 29.94 in WSW 4.0 mph 9.0 mph 82% 0.00 in
23:09 69.7 °F 64.0 °F 29.94 in WSW 4.0 mph 9.0 mph 82% 0.00 in
23:19 69.5 °F 63.8 °F 29.94 in WSW 3.0 mph 7.0 mph 82% 0.00 in
23:24 69.4 °F 63.3 °F 29.94 in West 2.0 mph 7.0 mph 81% 0.00 in
23:29 69.4 °F 63.7 °F 29.94 in Calm   7.0 mph 82% 0.00 in
23:34 69.4 °F 63.7 °F 29.94 in WSW 3.0 mph 7.0 mph 82% 0.00 in
23:39 69.3 °F 63.6 °F 29.94 in West 3.0 mph 7.0 mph 82% 0.00 in
23:44 69.3 °F 63.6 °F 29.94 in SW 5.0 mph 9.0 mph 82% 0.00 in
23:49 69.4 °F 63.7 °F 29.94 in Calm   7.0 mph 82% 0.00 in
23:54 69.3 °F 63.9 °F 29.94 in SW 3.0 mph 9.0 mph 83% 0.00 in
23:59 69.3 °F 63.6 °F 29.93 in West 2.0 mph 5.0 mph 82% 0.00 in
Buffalo, New York, USA
Compliments of Weather Underground - 2.25 mb